Time;durP1;ratioP1;P1;durP2;ratioP2;P2;SDS_P1;SDS_P2;PMS_P1;PMS_P2;Temp;Humidity;BMP_temperature;BMP_pressure;BME280_temperature;BME280_humidity;BME280_pressure;Samples;Min_cycle;Max_cycle;Signal;HPM_P1;HPM_P2
2022/07/07 00:00:58;;;;;;;6.47;2.78;;;;;;;8.56;100.00;93751.72;2106508;28;20023;-82
2022/07/07 00:01:59;;;;;;;4.72;2.88;;;;;;;8.65;100.00;93750.53;2106017;28;20024;-83
2022/07/07 00:03:13;;;;;;;5.80;2.80;;;;;;;8.56;100.00;93749.06;2118131;27;20030;-82
2022/07/07 00:04:15;;;;;;;4.03;2.80;;;;;;;8.47;100.00;93750.59;2108446;28;20063;-81
2022/07/07 00:05:16;;;;;;;3.88;2.88;;;;;;;8.51;100.00;93749.44;2106459;28;20024;-81
2022/07/07 00:06:17;;;;;;;3.05;2.45;;;;;;;8.47;100.00;93750.59;2098134;28;20024;-81
2022/07/07 00:07:19;;;;;;;4.00;2.95;;;;;;;8.46;100.00;93744.50;2106751;28;20027;-82
2022/07/07 00:08:20;;;;;;;3.58;2.65;;;;;;;8.53;100.00;93759.72;2106404;28;20065;-81
2022/07/07 00:09:21;;;;;;;5.47;2.90;;;;;;;8.38;100.00;93745.66;2106520;28;20032;-81
2022/07/07 00:10:22;;;;;;;5.75;2.70;;;;;;;8.29;100.00;93745.28;2106380;28;20077;-81
2022/07/07 00:11:24;;;;;;;4.55;2.65;;;;;;;8.34;100.00;93736.94;2106336;28;20089;-82
2022/07/07 00:12:42;;;;;;;4.68;2.53;;;;;;;8.14;100.00;93744.59;2107404;28;20107;-81
2022/07/07 00:13:42;;;;;;;3.78;2.60;;;;;;;8.15;100.00;93742.69;2115771;27;20098;-81
2022/07/07 00:14:59;;;;;;;4.22;2.92;;;;;;;8.22;100.00;93738.09;2105609;28;20550;-81
2022/07/07 00:16:35;;;;;;;5.03;2.40;;;;;;;8.32;100.00;93744.53;2109661;27;20115;-82
2022/07/07 00:17:36;;;;;;;4.93;2.67;;;;;;;8.40;100.00;93751.38;2125024;27;20511;-82
2022/07/07 00:18:37;;;;;;;4.28;2.72;;;;;;;8.23;100.00;93738.84;2123445;27;20023;-81
2022/07/07 00:19:38;;;;;;;6.90;2.90;;;;;;;8.23;100.00;93744.94;2123387;27;20051;-81
2022/07/07 00:20:39;;;;;;;3.45;2.55;;;;;;;8.20;100.00;93745.69;2122987;27;20051;-82
2022/07/07 00:21:40;;;;;;;3.13;2.75;;;;;;;8.14;100.00;93741.16;2106135;28;20097;-82
2022/07/07 00:22:41;;;;;;;4.25;3.15;;;;;;;8.24;100.00;93743.03;2098159;28;20035;-82
2022/07/07 00:23:42;;;;;;;6.45;2.70;;;;;;;8.23;100.00;93738.84;2106306;28;20621;-83
2022/07/07 00:24:44;;;;;;;5.35;3.17;;;;;;;8.28;100.00;93741.13;2106524;28;20028;-83
2022/07/07 00:25:45;;;;;;;3.88;2.83;;;;;;;8.25;100.00;93732.00;2097945;28;20025;-82
2022/07/07 00:26:46;;;;;;;3.65;2.83;;;;;;;8.30;100.00;93733.53;2098120;28;20602;-81
2022/07/07 00:27:47;;;;;;;4.55;2.40;;;;;;;8.17;100.00;93737.75;2098079;28;20052;-81
2022/07/07 00:28:49;;;;;;;4.72;2.75;;;;;;;8.16;100.00;93734.28;2104342;28;20110;-83
2022/07/07 00:29:50;;;;;;;3.40;2.70;;;;;;;8.08;100.00;93736.25;2098326;28;20032;-81
2022/07/07 00:30:51;;;;;;;6.88;2.58;;;;;;;8.06;100.00;93732.44;2097869;28;20492;-82
2022/07/07 00:31:52;;;;;;;4.93;2.90;;;;;;;8.08;100.00;93736.25;2098132;28;20051;-83
2022/07/07 00:32:53;;;;;;;7.22;2.97;;;;;;;8.05;100.00;93730.91;2107035;27;20028;-81
2022/07/07 00:33:54;;;;;;;4.28;2.88;;;;;;;8.06;100.00;93732.44;2114662;28;20378;-81
2022/07/07 00:34:55;;;;;;;3.75;3.00;;;;;;;8.05;100.00;93725.59;2106455;28;20808;-83
2022/07/07 00:35:56;;;;;;;3.70;2.78;;;;;;;8.12;100.00;93719.47;2114656;27;20520;-83
2022/07/07 00:36:57;;;;;;;3.45;2.80;;;;;;;7.97;100.00;93726.75;2114588;28;20047;-82
2022/07/07 00:37:58;;;;;;;4.82;2.90;;;;;;;8.04;100.00;93735.47;2106328;28;20046;-82
2022/07/07 00:38:59;;;;;;;5.30;3.30;;;;;;;8.01;100.00;93732.81;2113262;28;20023;-81
2022/07/07 00:40:00;;;;;;;4.60;2.95;;;;;;;8.02;100.00;93740.41;2100097;28;20031;-81
2022/07/07 00:41:01;;;;;;;7.95;3.63;;;;;;;8.08;100.00;93736.25;2094735;28;20115;-81
2022/07/07 00:42:05;;;;;;;5.00;3.10;;;;;;;8.23;100.00;93741.53;2111692;27;20414;-82
2022/07/07 00:43:06;;;;;;;6.10;2.95;;;;;;;8.25;100.00;93737.34;2116124;27;20498;-82
2022/07/07 00:44:12;;;;;;;6.88;3.58;;;;;;;8.43;100.00;93734.66;2112728;28;20027;-82
2022/07/07 00:45:13;;;;;;;9.40;3.42;;;;;;;8.24;100.00;93737.72;2114336;28;20436;-81
2022/07/07 00:46:16;;;;;;;4.55;3.03;;;;;;;8.15;100.00;93738.09;2114620;28;20027;-82
2022/07/07 00:47:19;;;;;;;5.35;3.00;;;;;;;8.00;100.00;93737.38;2101261;28;20023;-81
2022/07/07 00:48:20;;;;;;;7.13;3.20;;;;;;;8.01;100.00;93736.25;2097956;28;20032;-82
2022/07/07 00:49:22;;;;;;;3.47;2.72;;;;;;;8.17;100.00;93737.75;2089694;28;20111;-82
2022/07/07 00:50:23;;;;;;;5.82;3.72;;;;;;;8.13;100.00;93732.41;2098085;28;20428;-81
2022/07/07 00:51:24;;;;;;;5.00;2.72;;;;;;;8.14;100.00;93744.59;2106363;28;20111;-82
2022/07/07 00:52:25;;;;;;;4.85;3.00;;;;;;;8.23;100.00;93736.19;2106062;28;20069;-82
2022/07/07 00:53:26;;;;;;;6.38;3.20;;;;;;;8.23;100.00;93747.59;2105859;28;20067;-82
2022/07/07 00:54:27;;;;;;;4.93;3.28;;;;;;;8.16;100.00;93741.53;2106220;28;20712;-82
2022/07/07 00:55:28;;;;;;;5.40;2.85;;;;;;;8.06;100.00;93743.06;2106170;28;20020;-82
2022/07/07 00:56:29;;;;;;;6.30;3.22;;;;;;;7.82;100.00;93744.66;2097715;28;20158;-82
2022/07/07 00:57:31;;;;;;;4.45;2.83;;;;;;;7.89;100.00;93741.97;2099397;28;20630;-83
2022/07/07 00:58:33;;;;;;;5.18;3.33;;;;;;;8.04;100.00;93743.47;2105468;28;20060;-83
2022/07/07 00:59:34;;;;;;;8.13;3.00;;;;;;;8.04;100.00;93737.38;2097970;28;20020;-83
2022/07/07 01:00:36;;;;;;;7.10;3.17;;;;;;;7.95;100.00;93737.78;2112130;28;20020;-82
2022/07/07 01:01:39;;;;;;;4.47;3.00;;;;;;;7.91;100.00;93741.59;2107391;28;20024;-81
2022/07/07 01:02:42;;;;;;;6.85;3.28;;;;;;;7.95;100.00;93747.69;2111550;27;20027;-83
2022/07/07 01:03:42;;;;;;;5.05;2.95;;;;;;;8.04;100.00;93734.72;2114677;27;20475;-83
2022/07/07 01:04:43;;;;;;;5.05;3.33;;;;;;;8.05;100.00;93737.00;2106479;28;20024;-83
2022/07/07 01:05:46;;;;;;;7.70;3.25;;;;;;;8.03;100.00;93736.63;2097489;28;20052;-82
2022/07/07 01:06:47;;;;;;;3.75;3.00;;;;;;;7.81;100.00;93735.13;2098333;28;20491;-82
2022/07/07 01:07:51;;;;;;;6.05;3.33;;;;;;;7.65;100.00;93738.19;2106011;28;20031;-81
2022/07/07 01:08:53;;;;;;;8.02;3.53;;;;;;;7.49;100.00;93735.91;2114504;28;20032;-82
2022/07/07 01:09:56;;;;;;;5.60;2.90;;;;;;;7.59;100.00;93726.41;2106587;28;20020;-82
2022/07/07 01:10:57;;;;;;;6.10;3.00;;;;;;;7.75;100.00;93726.00;2114838;27;20023;-82
2022/07/07 01:11:58;;;;;;;5.03;2.97;;;;;;;7.81;100.00;93727.94;2113937;28;20034;-82
2022/07/07 01:13:03;;;;;;;5.55;3.10;;;;;;;7.80;100.00;93720.31;2100788;28;20020;-84
2022/07/07 01:14:05;;;;;;;5.07;3.30;;;;;;;7.78;100.00;93728.69;2099595;28;20553;-82
2022/07/07 01:15:09;;;;;;;6.72;3.22;;;;;;;7.65;100.00;93727.56;2098005;28;20024;-83
2022/07/07 01:16:10;;;;;;;5.85;3.22;;;;;;;7.57;100.00;93724.13;2111359;27;20028;-81
2022/07/07 01:17:11;;;;;;;6.25;2.75;;;;;;;7.53;100.00;93723.38;2117910;27;20030;-82
2022/07/07 01:18:12;;;;;;;4.45;3.28;;;;;;;7.45;100.00;93724.50;2108546;28;20030;-81
2022/07/07 01:19:14;;;;;;;4.60;2.92;;;;;;;7.41;100.00;93725.66;2118183;27;20107;-82
2022/07/07 01:20:15;;;;;;;3.60;3.22;;;;;;;7.51;100.00;93717.69;2123109;27;20041;-83
2022/07/07 01:21:19;;;;;;;7.40;3.33;;;;;;;7.64;100.00;93719.94;2131675;27;20026;-82
2022/07/07 01:22:24;;;;;;;8.70;2.85;;;;;;;7.63;100.00;93721.09;2118285;27;20383;-82
2022/07/07 01:23:25;;;;;;;3.58;3.10;;;;;;;7.54;100.00;93719.56;2098275;28;20024;-82
2022/07/07 01:24:28;;;;;;;4.45;3.22;;;;;;;7.65;100.00;93724.13;2105944;28;20031;-83
2022/07/07 01:25:29;;;;;;;6.95;3.28;;;;;;;7.69;100.00;93716.91;2097905;28;20066;-83
2022/07/07 01:26:31;;;;;;;4.55;3.20;;;;;;;7.65;100.00;93716.91;2105885;28;20119;-82
2022/07/07 01:27:32;;;;;;;5.35;3.33;;;;;;;7.40;100.00;93716.91;2097749;28;20048;-82
2022/07/07 01:28:33;;;;;;;7.60;3.20;;;;;;;7.32;100.00;93716.16;2094731;28;20016;-82
2022/07/07 01:31:52;;;;;;;4.90;2.92;;;;;;;7.57;100.00;93710.81;2080189;28;20433;-82
2022/07/07 01:33:27;;;;;;;4.53;2.90;;;;;;;7.62;100.00;93699.03;2094568;28;20089;-83
2022/07/07 01:34:28;;;;;;;4.43;3.15;;;;;;;7.48;100.00;93699.81;2106356;28;20024;-83
2022/07/07 01:37:47;;;;;;;3.72;2.70;;;;;;;7.62;100.00;93703.59;2123086;27;20142;-83
2022/07/07 01:38:48;;;;;;;4.40;2.85;;;;;;;7.69;100.00;93704.38;2105814;28;20071;-82
2022/07/07 01:39:49;;;;;;;5.30;3.13;;;;;;;7.69;100.00;93693.72;2105621;27;20027;-83
2022/07/07 01:40:50;;;;;;;3.35;3.00;;;;;;;7.69;100.00;93703.59;2114297;28;20080;-82
2022/07/07 01:41:51;;;;;;;7.63;3.35;;;;;;;7.65;100.00;93702.84;2113970;28;20027;-83
2022/07/07 01:42:52;;;;;;;10.85;3.10;;;;;;;7.67;100.00;93703.22;2114111;28;20043;-82
2022/07/07 01:43:53;;;;;;;5.35;3.40;;;;;;;7.59;100.00;93686.50;2114142;28;20467;-82
2022/07/07 01:44:54;;;;;;;6.00;3.00;;;;;;;7.47;100.00;93692.97;2114394;27;20077;-83
2022/07/07 01:47:57;;;;;;;5.60;2.70;;;;;;;7.39;100.00;93685.38;2139255;27;20034;-82
2022/07/07 01:48:58;;;;;;;4.65;3.47;;;;;;;7.31;100.00;93695.25;2122643;27;20039;-82
2022/07/07 01:49:58;;;;;;;5.95;3.17;;;;;;;7.33;100.00;93685.00;2114166;27;20020;-83
2022/07/07 01:50:59;;;;;;;5.10;3.05;;;;;;;7.25;100.00;93692.22;2108206;28;20032;-81
2022/07/07 01:52:01;;;;;;;3.85;3.30;;;;;;;7.28;100.00;93682.72;2097150;28;20101;-83
2022/07/07 01:53:03;;;;;;;6.50;3.70;;;;;;;7.40;100.00;93676.25;2099971;28;20460;-83
2022/07/07 01:54:04;;;;;;;4.53;2.92;;;;;;;7.55;100.00;93681.19;2097313;28;20024;-82
2022/07/07 01:55:05;;;;;;;5.38;3.03;;;;;;;7.54;100.00;93682.31;2097239;28;20032;-83
2022/07/07 01:56:06;;;;;;;6.45;3.50;;;;;;;7.50;100.00;93684.22;2097280;28;20048;-82
2022/07/07 01:57:08;;;;;;;5.18;3.05;;;;;;;7.43;100.00;93678.94;2096739;28;20020;-82
2022/07/07 01:58:09;;;;;;;6.15;3.20;;;;;;;7.40;100.00;93669.03;2089116;28;20467;-82
2022/07/07 01:59:10;;;;;;;6.05;3.55;;;;;;;7.48;100.00;93680.44;2103110;27;20024;-81
2022/07/07 02:00:12;;;;;;;4.18;2.78;;;;;;;7.48;100.00;93675.88;2131171;27;20014;-82
2022/07/07 02:01:13;;;;;;;3.97;3.08;;;;;;;7.51;100.00;93677.03;2118923;27;20537;-82
2022/07/07 02:02:14;;;;;;;5.47;3.33;;;;;;;7.54;100.00;93677.00;2105840;28;20028;-82
2022/07/07 02:03:16;;;;;;;4.60;3.13;;;;;;;7.59;100.00;93681.16;2114146;28;20399;-84
2022/07/07 02:04:17;;;;;;;4.38;3.28;;;;;;;7.63;100.00;93684.59;2105906;28;20039;-81
2022/07/07 02:05:18;;;;;;;5.78;2.90;;;;;;;7.62;100.00;93682.31;2113813;28;20050;-82
2022/07/07 02:06:19;;;;;;;6.95;3.10;;;;;;;7.56;100.00;93680.06;2097238;28;20350;-82
2022/07/07 02:07:49;;;;;;;3.15;2.72;;;;;;;7.46;100.00;93683.50;2097421;28;20111;-84
2022/07/07 02:08:49;;;;;;;5.07;2.88;;;;;;;7.31;100.00;93685.38;2096855;28;20028;-82
2022/07/07 02:09:50;;;;;;;3.00;2.70;;;;;;;7.18;100.00;93688.81;2097156;28;20028;-83
2022/07/07 02:12:41;;;;;;;4.97;2.90;;;;;;;7.14;100.00;93680.81;2109279;27;20038;-82
2022/07/07 02:13:47;;;;;;;3.45;3.15;;;;;;;7.27;100.00;93675.88;2116948;27;20027;-83
2022/07/07 02:14:48;;;;;;;7.88;3.10;;;;;;;7.06;100.00;93682.72;2121069;27;20493;-82
2022/07/07 02:15:49;;;;;;;4.10;3.08;;;;;;;7.11;100.00;93680.81;2122033;27;20043;-82
2022/07/07 02:16:50;;;;;;;4.18;2.97;;;;;;;7.10;100.00;93677.41;2089669;28;20155;-82
2022/07/07 02:17:51;;;;;;;3.58;3.10;;;;;;;7.14;100.00;93683.47;2113808;28;20503;-83
2022/07/07 02:18:54;;;;;;;5.28;3.10;;;;;;;7.19;100.00;93680.44;2105740;28;20055;-82
2022/07/07 02:19:56;;;;;;;7.05;2.90;;;;;;;7.20;100.00;93678.53;2106449;28;20024;-82
2022/07/07 02:21:10;;;;;;;5.80;3.05;;;;;;;7.27;100.00;93673.97;2104902;28;20032;-82
2022/07/07 02:22:41;;;;;;;3.88;3.00;;;;;;;7.19;100.00;93669.81;2106737;28;20108;-81
2022/07/07 02:23:45;;;;;;;5.13;3.22;;;;;;;7.13;100.00;93674.00;2105314;28;21003;-81
2022/07/07 02:24:47;;;;;;;4.35;2.88;;;;;;;7.17;100.00;93666.78;2098120;28;20028;-82
2022/07/07 02:25:48;;;;;;;5.15;3.22;;;;;;;7.12;100.00;93666.41;2097127;28;20020;-81
2022/07/07 02:26:49;;;;;;;7.03;2.95;;;;;;;7.13;100.00;93667.91;2105434;28;20047;-82
2022/07/07 02:27:53;;;;;;;5.28;3.17;;;;;;;7.08;100.00;93669.06;2096950;28;20024;-82
2022/07/07 02:28:54;;;;;;;4.97;2.90;;;;;;;7.17;100.00;93666.03;2108205;28;20020;-82
2022/07/07 02:29:55;;;;;;;3.40;3.10;;;;;;;7.18;100.00;93670.19;2106937;28;20499;-81
2022/07/07 02:30:57;;;;;;;4.43;3.08;;;;;;;7.25;100.00;93670.97;2105581;28;20032;-82
2022/07/07 02:31:58;;;;;;;6.63;3.40;;;;;;;7.28;100.00;93678.16;2105360;28;20601;-81
2022/07/07 02:32:59;;;;;;;6.10;3.08;;;;;;;7.25;100.00;93676.28;2113901;28;20023;-82
2022/07/07 02:34:00;;;;;;;4.57;3.08;;;;;;;7.10;100.00;93671.31;2105173;28;20459;-82
2022/07/07 02:35:01;;;;;;;4.70;2.70;;;;;;;7.07;100.00;93670.97;2105274;28;20024;-81
2022/07/07 02:36:04;;;;;;;6.57;3.28;;;;;;;7.10;100.00;93671.31;2113969;28;20043;-82
2022/07/07 02:37:05;;;;;;;5.53;3.33;;;;;;;7.23;100.00;93667.16;2105361;28;20094;-81
2022/07/07 02:38:06;;;;;;;5.25;3.00;;;;;;;7.30;100.00;93670.56;2096902;28;20021;-82
2022/07/07 02:39:07;;;;;;;3.40;2.88;;;;;;;7.22;100.00;93669.06;2114075;28;20028;-81
2022/07/07 02:40:08;;;;;;;6.22;3.10;;;;;;;7.13;100.00;93667.91;2113476;28;20522;-81
2022/07/07 02:41:10;;;;;;;4.68;2.97;;;;;;;7.11;100.00;93665.63;2105058;28;20026;-83
2022/07/07 02:42:11;;;;;;;5.93;2.85;;;;;;;7.08;100.00;93671.72;2099644;28;20027;-82
2022/07/07 02:43:15;;;;;;;5.50;3.50;;;;;;;6.97;100.00;93663.72;2104962;28;20024;-83
2022/07/07 02:44:16;;;;;;;3.13;2.67;;;;;;;7.01;100.00;93672.47;2113316;28;20480;-82
2022/07/07 02:45:17;;;;;;;5.40;2.95;;;;;;;7.08;100.00;93666.41;2113581;28;20024;-81
2022/07/07 02:46:18;;;;;;;4.03;3.33;;;;;;;7.15;100.00;93665.63;2097008;28;20384;-82
2022/07/07 02:47:19;;;;;;;6.30;3.70;;;;;;;7.13;100.00;93665.25;2105399;28;20533;-81
2022/07/07 02:48:24;;;;;;;3.78;3.13;;;;;;;7.17;100.00;93658.81;2105461;28;20163;-82
2022/07/07 02:49:25;;;;;;;4.68;3.20;;;;;;;7.18;100.00;93664.88;2106566;28;20102;-81
2022/07/07 02:50:26;;;;;;;5.60;3.30;;;;;;;7.27;100.00;93665.25;2113904;28;20035;-82
2022/07/07 02:51:27;;;;;;;5.63;2.90;;;;;;;7.32;100.00;93665.63;2113964;28;20028;-83
2022/07/07 02:52:28;;;;;;;4.63;2.83;;;;;;;7.36;100.00;93662.22;2105265;28;20053;-82
2022/07/07 02:53:29;;;;;;;6.47;3.45;;;;;;;7.22;100.00;93669.06;2105454;28;20130;-82
2022/07/07 02:54:30;;;;;;;5.93;2.95;;;;;;;7.20;100.00;93668.69;2105508;28;20031;-82
2022/07/07 02:55:31;;;;;;;5.82;3.22;;;;;;;7.35;100.00;93679.31;2105526;28;20024;-83
2022/07/07 02:56:32;;;;;;;3.67;3.03;;;;;;;7.18;100.00;93670.94;2105503;28;20020;-82
2022/07/07 02:57:33;;;;;;;4.95;3.35;;;;;;;7.23;100.00;93667.91;2096850;28;20090;-81
2022/07/07 02:58:34;;;;;;;7.32;3.35;;;;;;;7.09;100.00;93675.88;2093958;28;20025;-82
2022/07/07 02:59:36;;;;;;;6.72;3.55;;;;;;;7.12;100.00;93671.72;2101680;28;20031;-82
2022/07/07 03:00:38;;;;;;;4.70;3.22;;;;;;;6.91;100.00;93670.56;2096879;28;20024;-82
2022/07/07 03:01:39;;;;;;;5.25;2.80;;;;;;;7.03;100.00;93674.75;2089285;28;20025;-82
2022/07/07 03:02:40;;;;;;;4.40;3.33;;;;;;;6.96;100.00;93680.06;2088779;28;20029;-81
2022/07/07 03:03:41;;;;;;;8.70;3.42;;;;;;;6.95;100.00;93679.28;2103205;28;20035;-82
2022/07/07 03:05:05;;;;;;;4.70;3.40;;;;;;;6.94;100.00;93672.47;2105568;28;20059;-82
2022/07/07 03:06:06;;;;;;;4.85;3.33;;;;;;;6.79;100.00;93678.88;2108342;28;20034;-81
2022/07/07 03:07:07;;;;;;;6.43;3.15;;;;;;;6.78;100.00;93669.41;2105602;28;20020;-81
2022/07/07 03:08:08;;;;;;;4.45;3.00;;;;;;;6.90;100.00;93679.69;2113816;28;20034;-81
2022/07/07 03:09:09;;;;;;;5.72;3.20;;;;;;;6.91;100.00;93672.47;2106972;28;20028;-82
2022/07/07 03:10:12;;;;;;;4.93;3.05;;;;;;;6.98;100.00;93678.56;2107625;28;20109;-81
2022/07/07 03:11:13;;;;;;;7.03;2.90;;;;;;;7.05;100.00;93683.09;2107256;28;20114;-82
2022/07/07 03:12:14;;;;;;;6.03;3.42;;;;;;;6.98;100.00;93680.41;2098721;28;20504;-81
2022/07/07 03:13:15;;;;;;;4.00;2.83;;;;;;;6.91;100.00;93693.72;2106971;28;20031;-80
2022/07/07 03:14:16;;;;;;;4.88;3.13;;;;;;;6.86;100.00;93688.78;2098542;28;20402;-82
2022/07/07 03:15:17;;;;;;;4.13;2.90;;;;;;;6.87;100.00;93688.41;2115309;27;20024;-81
2022/07/07 03:16:18;;;;;;;5.22;2.95;;;;;;;6.95;100.00;93681.19;2115454;28;20072;-82
2022/07/07 03:17:19;;;;;;;8.55;3.95;;;;;;;6.92;100.00;93688.00;2107048;28;20028;-81
2022/07/07 03:18:20;;;;;;;5.20;3.45;;;;;;;6.92;100.00;93687.25;2106915;28;20024;-82
2022/07/07 03:19:21;;;;;;;5.25;3.35;;;;;;;6.95;100.00;93689.94;2106949;28;20028;-81
2022/07/07 03:20:22;;;;;;;5.43;3.03;;;;;;;6.98;100.00;93688.41;2106860;28;20023;-82
2022/07/07 03:21:23;;;;;;;4.53;3.20;;;;;;;6.96;100.00;93688.78;2090749;28;20032;-81
2022/07/07 03:22:24;;;;;;;6.65;3.00;;;;;;;6.93;100.00;93683.47;2090181;28;20416;-81
2022/07/07 03:23:25;;;;;;;8.90;3.20;;;;;;;7.01;100.00;93685.75;2098689;28;20125;-81
2022/07/07 03:24:29;;;;;;;4.72;2.85;;;;;;;6.98;100.00;93691.84;2106665;28;20438;-81
2022/07/07 03:25:30;;;;;;;5.70;3.53;;;;;;;7.03;100.00;93682.72;2098974;28;20089;-81
2022/07/07 03:26:31;;;;;;;6.55;3.38;;;;;;;7.01;100.00;93688.41;2090497;28;20666;-82
2022/07/07 03:27:32;;;;;;;10.75;2.97;;;;;;;7.02;100.00;93684.63;2098500;28;20020;-82
2022/07/07 03:28:33;;;;;;;4.97;3.10;;;;;;;7.02;100.00;93681.19;2098586;28;20468;-82
2022/07/07 03:29:34;;;;;;;4.25;2.92;;;;;;;6.97;100.00;93678.91;2090133;28;20020;-82
2022/07/07 03:30:35;;;;;;;8.02;3.53;;;;;;;6.97;100.00;93682.31;2092212;28;20055;-82
2022/07/07 03:31:36;;;;;;;7.30;3.47;;;;;;;6.93;100.00;93683.47;2106997;28;20020;-81
2022/07/07 03:32:37;;;;;;;5.35;2.80;;;;;;;7.03;100.00;93686.16;2106944;28;20016;-82
2022/07/07 03:33:38;;;;;;;6.40;3.40;;;;;;;7.06;100.00;93684.59;2106905;28;20024;-82
2022/07/07 03:34:39;;;;;;;3.53;2.80;;;;;;;6.95;100.00;93689.16;2106662;28;20027;-83
2022/07/07 03:35:41;;;;;;;9.88;3.30;;;;;;;7.00;100.00;93684.22;2090214;28;20025;-82
2022/07/07 03:36:43;;;;;;;4.60;3.13;;;;;;;7.02;100.00;93681.97;2090684;28;20036;-82
2022/07/07 03:37:43;;;;;;;3.97;3.13;;;;;;;7.06;100.00;93688.03;2106853;28;20031;-83
2022/07/07 03:38:44;;;;;;;4.25;3.10;;;;;;;6.95;100.00;93683.84;2098449;28;20032;-82
2022/07/07 03:39:45;;;;;;;6.35;3.13;;;;;;;7.04;100.00;93687.66;2106717;28;20115;-82
2022/07/07 03:40:46;;;;;;;3.80;2.75;;;;;;;6.79;100.00;93686.84;2106891;28;20055;-82
2022/07/07 03:41:47;;;;;;;4.40;2.97;;;;;;;6.88;100.00;93676.63;2107012;28;20027;-82
2022/07/07 03:42:48;;;;;;;8.93;3.65;;;;;;;6.88;100.00;93681.94;2098491;28;20044;-83
2022/07/07 03:43:55;;;;;;;5.43;3.10;;;;;;;6.92;100.00;93687.25;2106934;28;20016;-82
2022/07/07 03:44:55;;;;;;;9.23;3.13;;;;;;;6.86;100.00;93678.91;2116014;27;20024;-83
2022/07/07 03:45:56;;;;;;;6.32;3.40;;;;;;;6.93;100.00;93678.91;2115150;28;20034;-82
2022/07/07 03:46:57;;;;;;;5.32;3.28;;;;;;;6.95;100.00;93681.94;2098514;28;20044;-81
2022/07/07 03:47:58;;;;;;;5.28;2.97;;;;;;;6.93;100.00;93680.81;2098533;28;20027;-81
2022/07/07 03:48:59;;;;;;;6.07;3.65;;;;;;;6.92;100.00;93677.38;2106697;28;20524;-82
2022/07/07 03:50:00;;;;;;;8.77;3.25;;;;;;;6.93;100.00;93681.56;2106782;28;20024;-81
2022/07/07 03:51:01;;;;;;;5.93;3.78;;;;;;;7.00;100.00;93681.56;2098342;28;20373;-82
2022/07/07 03:52:03;;;;;;;4.13;3.38;;;;;;;6.90;100.00;93677.03;2098176;28;20020;-81
2022/07/07 03:53:04;;;;;;;6.40;3.28;;;;;;;6.96;100.00;93675.50;2090354;28;20016;-82
2022/07/07 03:54:05;;;;;;;6.80;2.97;;;;;;;7.01;100.00;93680.44;2104533;28;20082;-83
2022/07/07 03:55:07;;;;;;;5.03;3.20;;;;;;;6.92;100.00;93672.06;2098163;28;20584;-81
2022/07/07 03:56:08;;;;;;;5.05;3.25;;;;;;;6.89;100.00;93664.09;2098534;28;20024;-82
2022/07/07 03:57:09;;;;;;;5.32;3.40;;;;;;;6.91;100.00;93673.22;2106742;28;20028;-82
2022/07/07 03:58:10;;;;;;;6.22;3.15;;;;;;;7.02;100.00;93676.66;2107368;28;20325;-82
2022/07/07 03:59:11;;;;;;;5.78;3.42;;;;;;;6.92;100.00;93666.00;2115035;28;20023;-82
2022/07/07 04:00:12;;;;;;;4.55;3.20;;;;;;;6.96;100.00;93664.09;2114903;28;20026;-81
2022/07/07 04:01:13;;;;;;;4.93;3.08;;;;;;;6.85;100.00;93669.41;2106506;28;20158;-82
2022/07/07 04:02:14;;;;;;;6.70;3.25;;;;;;;6.84;100.00;93659.91;2115225;27;20057;-81
2022/07/07 04:03:15;;;;;;;6.03;3.20;;;;;;;6.78;100.00;93669.41;2122976;27;20030;-82
2022/07/07 04:04:22;;;;;;;6.18;3.17;;;;;;;6.90;100.00;93671.69;2111019;28;20032;-81
2022/07/07 04:05:23;;;;;;;6.18;3.20;;;;;;;6.95;100.00;93667.91;2090411;28;20071;-81
2022/07/07 04:06:24;;;;;;;5.13;3.15;;;;;;;6.95;100.00;93662.59;2081739;28;20025;-82
2022/07/07 04:07:25;;;;;;;6.05;3.17;;;;;;;6.93;100.00;93660.28;2087613;28;20020;-82
2022/07/07 04:08:26;;;;;;;7.15;3.10;;;;;;;6.94;100.00;93653.09;2098277;28;20082;-81
2022/07/07 04:09:27;;;;;;;4.55;3.00;;;;;;;6.95;100.00;93646.66;2093009;28;20121;-82
2022/07/07 04:10:28;;;;;;;6.57;3.30;;;;;;;6.96;100.00;93648.91;2092041;28;20017;-82
2022/07/07 04:11:29;;;;;;;4.43;2.95;;;;;;;7.04;100.00;93649.69;2089683;28;20634;-82
2022/07/07 04:12:30;;;;;;;4.20;3.00;;;;;;;7.04;100.00;93660.31;2090018;28;20029;-82
2022/07/07 04:13:31;;;;;;;4.95;2.80;;;;;;;7.04;100.00;93644.38;2089984;28;20024;-82
2022/07/07 04:14:32;;;;;;;3.72;2.67;;;;;;;7.03;100.00;93651.59;2091571;28;20066;-82
2022/07/07 04:15:34;;;;;;;5.35;3.15;;;;;;;7.06;100.00;93639.41;2098894;28;20151;-81
2022/07/07 04:16:35;;;;;;;4.78;3.22;;;;;;;7.07;100.00;93639.06;2106661;28;20016;-81
2022/07/07 04:17:36;;;;;;;7.20;3.25;;;;;;;7.04;100.00;93639.06;2115120;27;20019;-82
2022/07/07 04:18:37;;;;;;;4.60;3.50;;;;;;;7.13;100.00;93641.34;2114961;28;20023;-82
2022/07/07 04:19:39;;;;;;;4.22;3.13;;;;;;;7.10;100.00;93639.44;2106258;28;20039;-82
2022/07/07 04:20:40;;;;;;;8.70;4.07;;;;;;;7.11;100.00;93643.59;2114690;27;20023;-82
2022/07/07 04:21:41;;;;;;;8.93;3.33;;;;;;;7.07;100.00;93639.06;2114873;28;20024;-81
2022/07/07 04:22:42;;;;;;;3.38;2.85;;;;;;;7.00;100.00;93631.06;2106560;28;20024;-82
2022/07/07 04:23:43;;;;;;;3.50;2.80;;;;;;;7.02;100.00;93626.16;2118159;27;20015;-81
2022/07/07 04:24:44;;;;;;;8.82;3.30;;;;;;;7.11;100.00;93619.69;2106781;28;20078;-81
2022/07/07 04:25:45;;;;;;;6.63;3.60;;;;;;;7.15;100.00;93625.75;2106428;28;20016;-83
2022/07/07 04:26:46;;;;;;;3.28;2.97;;;;;;;7.19;100.00;93621.94;2114769;28;20463;-82
2022/07/07 04:27:48;;;;;;;6.45;3.05;;;;;;;7.22;100.00;93620.44;2106554;28;20130;-82
2022/07/07 04:28:55;;;;;;;3.33;2.72;;;;;;;7.19;100.00;93613.97;2093411;28;20705;-82
2022/07/07 04:29:56;;;;;;;3.45;3.10;;;;;;;7.26;100.00;93618.53;2091458;28;20116;-82
2022/07/07 04:30:57;;;;;;;4.95;2.90;;;;;;;7.21;100.00;93618.94;2106361;28;20024;-82
2022/07/07 04:32:10;;;;;;;3.80;2.90;;;;;;;7.30;100.00;93619.28;2114789;28;20027;-82
2022/07/07 04:33:12;;;;;;;6.10;3.13;;;;;;;7.36;100.00;93619.66;2108372;28;20052;-82
2022/07/07 04:34:13;;;;;;;4.10;2.70;;;;;;;7.30;100.00;93620.06;2098206;28;20028;-81
2022/07/07 04:35:14;;;;;;;4.85;2.78;;;;;;;7.34;100.00;93624.63;2098277;28;20016;-83
2022/07/07 04:36:15;;;;;;;4.32;2.85;;;;;;;7.42;100.00;93632.19;2106425;28;20020;-82
2022/07/07 04:37:16;;;;;;;6.20;2.50;;;;;;;7.43;100.00;93632.97;2115973;27;20026;-81
2022/07/07 04:38:17;;;;;;;3.00;2.67;;;;;;;7.48;100.00;93638.63;2108870;28;20089;-82
2022/07/07 04:39:18;;;;;;;4.25;2.70;;;;;;;7.48;100.00;93643.97;2106393;28;20043;-82
2022/07/07 04:40:19;;;;;;;4.55;2.78;;;;;;;7.48;100.00;93645.88;2112682;28;20045;-82
2022/07/07 04:41:22;;;;;;;3.08;2.72;;;;;;;7.70;100.00;93643.91;2115077;28;20027;-81
2022/07/07 04:42:23;;;;;;;4.50;2.50;;;;;;;7.61;100.00;93640.91;2106030;28;20027;-82
2022/07/07 04:43:24;;;;;;;5.20;3.05;;;;;;;7.47;100.00;93637.13;2114117;27;20490;-82
2022/07/07 04:44:25;;;;;;;4.55;2.55;;;;;;;7.41;100.00;93637.88;2131674;27;20057;-81
2022/07/07 04:45:26;;;;;;;3.83;2.50;;;;;;;7.43;100.00;93632.97;2131650;27;20014;-82
2022/07/07 04:46:27;;;;;;;5.90;2.67;;;;;;;7.52;100.00;93643.97;2123183;27;20030;-81
2022/07/07 04:47:28;;;;;;;6.38;3.00;;;;;;;7.54;100.00;93644.31;2123194;27;20034;-82
2022/07/07 04:48:29;;;;;;;3.90;2.63;;;;;;;7.61;100.00;93643.56;2131767;27;20097;-82
2022/07/07 04:49:30;;;;;;;4.90;2.72;;;;;;;7.58;100.00;93639.75;2123275;27;20023;-81
2022/07/07 04:50:31;;;;;;;3.20;2.90;;;;;;;7.69;100.00;93645.06;2113052;28;20028;-81
2022/07/07 04:51:32;;;;;;;4.18;3.45;;;;;;;7.70;100.00;93642.03;2097871;28;20052;-81
2022/07/07 04:52:33;;;;;;;5.93;2.88;;;;;;;7.75;100.00;93644.28;2110344;28;20070;-82
2022/07/07 04:53:34;;;;;;;3.63;2.95;;;;;;;7.77;100.00;93650.00;2106208;28;20028;-83
2022/07/07 04:54:35;;;;;;;4.28;2.92;;;;;;;7.79;100.00;93644.28;2116846;27;20034;-81
2022/07/07 04:55:36;;;;;;;3.35;2.92;;;;;;;7.86;100.00;93643.47;2114414;28;20438;-83
2022/07/07 04:56:37;;;;;;;5.10;3.10;;;;;;;7.87;100.00;93637.03;2123087;27;20462;-81
2022/07/07 04:57:38;;;;;;;3.80;2.83;;;;;;;7.93;100.00;93638.91;2123190;27;20126;-82
2022/07/07 04:58:39;;;;;;;5.47;2.83;;;;;;;8.01;100.00;93639.66;2115168;27;20117;-82
2022/07/07 04:59:40;;;;;;;7.32;3.25;;;;;;;8.08;100.00;93647.63;2106132;28;20020;-83
2022/07/07 05:00:41;;;;;;;6.43;3.80;;;;;;;8.11;100.00;93632.75;2096759;28;20035;-82
2022/07/07 05:01:48;;;;;;;8.05;4.60;;;;;;;8.12;100.00;93635.06;2093112;28;20035;-82